Time;durP1;ratioP1;P1;durP2;ratioP2;P2;SDS_P1;SDS_P2;PMS_P1;PMS_P2;Temp;Humidity;BMP_temperature;BMP_pressure;BME280_temperature;BME280_humidity;BME280_pressure;Samples;Min_cycle;Max_cycle;Signal;HPM_P1;HPM_P2
2021/12/27 00:00:50;;;;;;;33.75;18.52;;;;;;;11.62;71.56;100620.03;4981813;28;20031;-81
2021/12/27 00:03:17;;;;;;;36.85;18.25;;;;;;;11.64;71.57;100630.69;4986748;28;20045;-82
2021/12/27 00:05:43;;;;;;;41.72;16.42;;;;;;;11.62;72.07;100613.81;4984774;28;20023;-82
2021/12/27 00:08:08;;;;;;;41.08;18.90;;;;;;;11.69;71.83;100621.22;4977070;28;20034;-80
2021/12/27 00:10:35;;;;;;;38.88;17.10;;;;;;;11.70;72.13;100617.59;4976348;28;20023;-82
2021/12/27 00:13:02;;;;;;;43.03;19.52;;;;;;;11.63;72.38;100619.06;4978194;28;20035;-82
2021/12/27 00:15:28;;;;;;;39.97;17.38;;;;;;;11.62;72.08;100614.66;4977813;28;20086;-81
2021/12/27 00:17:54;;;;;;;45.67;17.80;;;;;;;11.60;72.54;100610.38;4995299;28;20477;-83
2021/12/27 00:20:20;;;;;;;34.78;19.10;;;;;;;11.53;73.02;100610.06;4996602;28;20023;-82
2021/12/27 00:22:47;;;;;;;32.33;17.10;;;;;;;11.33;73.75;100614.47;4995424;28;20065;-82
2021/12/27 00:25:14;;;;;;;35.17;18.02;;;;;;;11.48;73.84;100628.47;4996940;28;20026;-82
2021/12/27 00:27:40;;;;;;;33.03;17.73;;;;;;;11.51;73.24;100616.56;4979277;28;20056;-82
2021/12/27 00:30:07;;;;;;;29.27;17.08;;;;;;;11.52;73.70;100627.22;4979881;28;20457;-81
2021/12/27 00:32:36;;;;;;;40.63;17.58;;;;;;;11.41;73.92;100628.13;4997016;28;20029;-80
2021/12/27 00:35:05;;;;;;;34.78;20.08;;;;;;;11.52;73.65;100621.84;4996953;28;20054;-79
2021/12/27 00:37:31;;;;;;;36.25;19.27;;;;;;;11.57;74.18;100616.91;4996760;28;20089;-80
2021/12/27 00:39:56;;;;;;;37.22;17.75;;;;;;;11.69;74.13;100618.53;4978944;28;20433;-80
2021/12/27 00:42:21;;;;;;;36.53;18.25;;;;;;;11.57;74.13;100616.03;4995622;28;20037;-80
2021/12/27 00:44:47;;;;;;;40.65;19.67;;;;;;;11.57;74.00;100622.28;4996154;28;20034;-80
2021/12/27 00:47:12;;;;;;;37.30;20.08;;;;;;;11.64;73.89;100620.78;4995888;28;20050;-79
2021/12/27 00:49:38;;;;;;;34.72;19.25;;;;;;;11.67;73.94;100625.91;4995166;28;20037;-80
2021/12/27 00:52:03;;;;;;;38.00;18.98;;;;;;;11.79;74.28;100616.81;4996387;28;20092;-79
2021/12/27 00:54:29;;;;;;;30.10;17.45;;;;;;;11.78;73.95;100619.59;4995731;28;20030;-79
2021/12/27 00:56:54;;;;;;;32.03;17.83;;;;;;;11.81;73.89;100628.28;4996008;28;20026;-79
2021/12/27 00:59:20;;;;;;;35.20;19.10;;;;;;;11.84;73.69;100625.31;4995745;28;20093;-79
2021/12/27 01:01:46;;;;;;;36.60;18.95;;;;;;;11.69;74.52;100621.22;4995753;28;20045;-80
2021/12/27 01:04:11;;;;;;;34.05;17.55;;;;;;;11.76;74.29;100625.16;4996128;28;20104;-80
2021/12/27 01:06:37;;;;;;;44.95;19.63;;;;;;;11.87;73.77;100630.44;4978872;28;20026;-79
2021/12/27 01:09:04;;;;;;;31.10;17.60;;;;;;;12.00;74.24;100623.00;4975316;28;20035;-79
2021/12/27 01:11:41;;;;;;;38.08;17.52;;;;;;;12.07;73.88;100619.78;4975883;28;20026;-79
2021/12/27 01:14:14;;;;;;;40.38;18.65;;;;;;;12.18;73.63;100625.94;4975202;28;20109;-79
2021/12/27 01:16:40;;;;;;;;;;;;;;;12.25;72.95;100612.75;4976195;28;20027;-79
2021/12/27 01:19:06;;;;;;;35.90;18.58;;;;;;;12.25;72.64;100619.00;4975584;28;19914;-79
2021/12/27 01:21:32;;;;;;;33.35;18.40;;;;;;;12.29;72.62;100614.22;4980419;28;20030;-79
2021/12/27 01:23:58;;;;;;;33.13;19.35;;;;;;;12.34;72.35;100612.81;4975195;28;20038;-79
2021/12/27 01:26:25;;;;;;;31.70;17.35;;;;;;;12.35;72.11;100609.09;4994268;28;20102;-79
2021/12/27 01:28:52;;;;;;;34.10;17.58;;;;;;;12.37;72.38;100600.88;4995261;28;20034;-79
2021/12/27 01:31:18;;;;;;;38.05;17.05;;;;;;;12.31;71.98;100604.13;4992604;28;20026;-79
2021/12/27 01:33:46;;;;;;;34.25;19.05;;;;;;;12.34;71.98;100595.78;5003191;28;20099;-78
2021/12/27 01:36:13;;;;;;;32.97;18.80;;;;;;;12.26;72.13;100593.72;4994882;28;20030;-80
2021/12/27 01:38:40;;;;;;;42.17;19.08;;;;;;;12.24;72.55;100597.56;4995452;28;20030;-78
2021/12/27 01:41:07;;;;;;;41.75;20.77;;;;;;;12.19;72.24;100594.44;4995521;28;20105;-79
2021/12/27 01:43:35;;;;;;;34.30;19.58;;;;;;;12.24;72.77;100594.88;4995791;28;20038;-79
2021/12/27 01:46:06;;;;;;;37.38;19.88;;;;;;;12.25;72.66;100585.81;4995207;28;20046;-79
2021/12/27 01:48:37;;;;;;;42.80;19.60;;;;;;;12.28;72.44;100585.53;4994918;28;20034;-79
2021/12/27 01:51:05;;;;;;;32.55;18.02;;;;;;;12.23;73.02;100587.78;4994342;28;20065;-79
2021/12/27 01:53:32;;;;;;;44.40;20.30;;;;;;;12.21;72.57;100579.81;4994376;28;20062;-79
2021/12/27 01:55:59;;;;;;;39.10;20.50;;;;;;;12.19;73.23;100571.03;4994960;28;20411;-78
2021/12/27 01:58:26;;;;;;;46.72;21.17;;;;;;;12.24;72.29;100568.75;4994949;28;20476;-79
2021/12/27 02:00:54;;;;;;;34.05;19.08;;;;;;;12.16;72.76;100567.75;4993632;28;20084;-79
2021/12/27 02:03:22;;;;;;;39.92;20.02;;;;;;;12.15;72.80;100566.88;4995210;28;20477;-78
2021/12/27 02:05:47;;;;;;;37.53;20.63;;;;;;;12.07;73.46;100566.72;4995259;28;20022;-79
2021/12/27 02:08:13;;;;;;;41.85;20.45;;;;;;;11.99;73.66;100558.44;4995973;28;20022;-80
2021/12/27 02:10:40;;;;;;;34.10;20.23;;;;;;;11.98;73.90;100552.22;4994426;28;20527;-80
2021/12/27 02:13:06;;;;;;;32.90;19.15;;;;;;;12.06;73.72;100556.06;4994603;28;20023;-80
2021/12/27 02:15:31;;;;;;;39.00;19.52;;;;;;;12.11;73.90;100551.13;4994837;28;20030;-79
2021/12/27 02:17:57;;;;;;;38.83;19.77;;;;;;;12.11;74.00;100548.44;4994640;28;20440;-80
2021/12/27 02:20:28;;;;;;;35.97;19.75;;;;;;;12.13;74.10;100546.44;4995241;28;20054;-80
2021/12/27 02:22:59;;;;;;;47.22;19.70;;;;;;;12.17;74.12;100542.50;4994356;28;20022;-79
2021/12/27 02:25:25;;;;;;;37.92;19.80;;;;;;;12.12;74.37;100525.88;4994627;28;20550;-80
2021/12/27 02:27:51;;;;;;;34.40;20.50;;;;;;;12.28;74.17;100542.38;4994517;28;20023;-80
2021/12/27 02:30:18;;;;;;;41.75;19.33;;;;;;;12.18;73.69;100536.09;4994818;28;20030;-80
2021/12/27 02:32:55;;;;;;;37.45;20.23;;;;;;;12.23;73.93;100544.66;4988168;28;20053;-79
2021/12/27 02:35:33;;;;;;;36.45;19.52;;;;;;;12.29;74.24;100538.69;4979379;28;20093;-78
2021/12/27 02:38:01;;;;;;;42.95;19.55;;;;;;;12.26;73.94;100538.97;4982255;28;20026;-80
2021/12/27 02:40:29;;;;;;;34.55;19.45;;;;;;;12.24;73.81;100522.06;4994725;28;20037;-79
2021/12/27 02:43:08;;;;;;;35.90;19.83;;;;;;;12.21;73.85;100530.44;4978938;28;20035;-81
2021/12/27 02:45:38;;;;;;;42.03;20.77;;;;;;;12.17;74.11;100539.81;4978605;28;20023;-79
2021/12/27 02:48:05;;;;;;;40.53;21.30;;;;;;;12.18;74.54;100539.66;4975827;28;20104;-80
2021/12/27 02:50:31;;;;;;;43.97;20.85;;;;;;;12.07;74.79;100542.47;4978470;28;20112;-79
2021/12/27 02:52:57;;;;;;;44.22;20.98;;;;;;;12.08;74.73;100546.00;4993880;28;20573;-79
2021/12/27 02:55:24;;;;;;;40.88;21.52;;;;;;;11.92;75.43;100542.00;4993741;28;20030;-79
2021/12/27 02:57:52;;;;;;;52.80;22.42;;;;;;;12.00;75.35;100550.25;4993886;28;20026;-79
2021/12/27 03:00:21;;;;;;;39.10;21.85;;;;;;;11.93;75.76;100549.06;4993694;28;20114;-78
2021/12/27 03:02:48;;;;;;;37.95;21.33;;;;;;;11.83;76.33;100553.53;4994248;28;20037;-78
2021/12/27 03:05:16;;;;;;;49.08;20.45;;;;;;;11.86;76.07;100547.06;4994336;28;20036;-78
2021/12/27 03:07:43;;;;;;;36.72;20.83;;;;;;;11.87;76.85;100548.75;4993688;28;20461;-79
2021/12/27 03:10:10;;;;;;;36.75;19.13;;;;;;;11.78;75.97;100550.41;4997020;28;20419;-80
2021/12/27 03:12:38;;;;;;;39.08;19.92;;;;;;;11.72;76.75;100545.56;5008719;28;20026;-79
2021/12/27 03:15:06;;;;;;;34.30;19.52;;;;;;;11.65;77.00;100552.44;4998449;28;20033;-80
2021/12/27 03:17:32;;;;;;;42.15;21.05;;;;;;;11.63;77.17;100556.25;4999419;28;20023;-79
2021/12/27 03:19:58;;;;;;;41.20;21.58;;;;;;;11.63;77.55;100564.31;4999285;28;20038;-80
2021/12/27 03:22:23;;;;;;;36.75;19.45;;;;;;;11.64;77.97;100563.34;4997492;28;20049;-80
2021/12/27 03:24:49;;;;;;;42.58;21.55;;;;;;;11.65;77.60;100565.91;4997375;28;20508;-80
2021/12/27 03:27:14;;;;;;;40.72;21.52;;;;;;;11.65;77.75;100555.13;4997585;28;20022;-79
2021/12/27 03:29:40;;;;;;;34.30;20.25;;;;;;;11.60;77.49;100545.75;4997118;28;20472;-79
2021/12/27 03:32:07;;;;;;;38.22;19.92;;;;;;;11.62;77.49;100560.78;4997799;28;20022;-79
2021/12/27 03:34:33;;;;;;;35.47;20.77;;;;;;;11.63;77.94;100558.94;4997282;28;20073;-79
2021/12/27 03:36:59;;;;;;;35.03;19.83;;;;;;;11.64;77.64;100558.81;4997379;28;20515;-79
2021/12/27 03:39:25;;;;;;;36.10;20.17;;;;;;;11.61;77.61;100552.84;4997586;28;20032;-79
2021/12/27 03:41:51;;;;;;;42.03;18.55;;;;;;;11.64;77.13;100558.81;4997830;28;20443;-79
2021/12/27 03:44:16;;;;;;;32.88;20.05;;;;;;;11.62;76.96;100560.78;4997505;28;20034;-79
2021/12/27 03:46:42;;;;;;;31.55;19.08;;;;;;;11.58;77.68;100553.97;4979226;28;20394;-79
2021/12/27 03:49:07;;;;;;;40.05;20.42;;;;;;;11.58;77.44;100543.19;4981409;28;20398;-80
2021/12/27 03:51:33;;;;;;;33.95;19.90;;;;;;;11.58;78.05;100537.81;4978312;28;20034;-79
2021/12/27 03:53:59;;;;;;;33.97;20.65;;;;;;;11.56;77.60;100538.94;4977831;28;20031;-79
2021/12/27 03:56:24;;;;;;;38.95;20.00;;;;;;;11.59;77.88;100534.09;4978614;28;20031;-80
2021/12/27 03:58:57;;;;;;;30.88;19.40;;;;;;;11.55;78.14;100532.69;4978015;28;20173;-80
2021/12/27 04:01:24;;;;;;;43.70;19.77;;;;;;;11.60;78.09;100541.22;4977792;28;20473;-80
2021/12/27 04:03:56;;;;;;;36.40;19.90;;;;;;;11.60;78.02;100529.56;4977281;28;20374;-80
2021/12/27 04:06:23;;;;;;;38.77;21.30;;;;;;;11.72;77.54;100540.16;4984988;28;20085;-80
2021/12/27 04:08:49;;;;;;;36.70;20.08;;;;;;;11.72;76.85;100537.47;4996942;28;20145;-80
2021/12/27 04:11:15;;;;;;;34.03;20.58;;;;;;;11.79;77.45;100549.44;4995976;28;20073;-80
2021/12/27 04:13:40;;;;;;;34.55;20.05;;;;;;;11.81;77.51;100546.59;4997184;28;20068;-80
2021/12/27 04:16:07;;;;;;;40.00;20.10;;;;;;;11.85;77.27;100545.34;4996360;28;20034;-80
2021/12/27 04:18:33;;;;;;;39.47;19.73;;;;;;;11.78;76.98;100536.94;4996600;28;20034;-80
2021/12/27 04:20:58;;;;;;;33.45;18.52;;;;;;;11.89;76.80;100550.34;4997055;28;20030;-79
2021/12/27 04:23:24;;;;;;;34.38;19.70;;;;;;;11.86;76.94;100541.66;4996483;28;20032;-79
2021/12/27 04:25:49;;;;;;;38.85;20.17;;;;;;;11.90;77.22;100543.94;4996806;28;20026;-79
2021/12/27 04:28:16;;;;;;;48.60;26.65;;;;;;;12.00;77.20;100535.91;4997274;28;20542;-79
2021/12/27 04:30:43;;;;;;;36.17;19.80;;;;;;;11.89;76.37;100544.94;4997340;28;20030;-79
2021/12/27 04:33:08;;;;;;;31.60;18.80;;;;;;;11.91;76.45;100534.03;4996889;28;20045;-80
2021/12/27 04:35:34;;;;;;;37.03;19.80;;;;;;;11.93;76.59;100519.41;4996378;28;20110;-79
2021/12/27 04:38:00;;;;;;;35.72;21.08;;;;;;;11.97;75.86;100515.47;4996540;28;20523;-79
2021/12/27 04:40:29;;;;;;;33.63;18.90;;;;;;;11.94;76.08;100529.22;4996084;28;20030;-79
2021/12/27 04:43:04;;;;;;;33.95;19.10;;;;;;;11.97;75.92;100537.03;4996158;28;20030;-79
2021/12/27 04:45:30;;;;;;;32.17;18.05;;;;;;;11.97;76.65;100523.56;4995166;28;20032;-80
2021/12/27 04:47:55;;;;;;;29.17;18.00;;;;;;;12.04;76.33;100526.56;4997241;28;20129;-80
2021/12/27 04:50:23;;;;;;;38.50;18.95;;;;;;;12.11;75.67;100527.69;5004329;28;20026;-79
2021/12/27 04:52:53;;;;;;;28.15;18.58;;;;;;;12.02;75.70;100518.59;4986808;28;20042;-79
2021/12/27 04:55:20;;;;;;;34.25;18.85;;;;;;;12.11;75.33;100524.19;4975440;28;20035;-80
2021/12/27 04:57:45;;;;;;;36.40;19.80;;;;;;;12.12;75.46;100512.38;4979907;28;20081;-79
2021/12/27 05:00:11;;;;;;;33.25;17.70;;;;;;;12.12;75.20;100520.47;4995767;28;20444;-79
2021/12/27 05:02:37;;;;;;;36.15;17.70;;;;;;;12.07;75.22;100511.94;4995666;28;20511;-79
2021/12/27 05:05:03;;;;;;;29.45;17.50;;;;;;;11.99;75.42;100515.31;4995246;28;20116;-80
2021/12/27 05:07:32;;;;;;;35.97;18.45;;;;;;;11.98;75.94;100514.50;4995017;28;20058;-78
2021/12/27 05:09:58;;;;;;;36.80;18.35;;;;;;;12.02;76.11;100515.03;4995784;28;20068;-78
2021/12/27 05:12:23;;;;;;;32.92;18.92;;;;;;;12.23;76.15;100523.06;4995043;28;20045;-79
2021/12/27 05:14:49;;;;;;;36.33;18.73;;;;;;;12.23;75.66;100515.00;4995697;28;20349;-82
2021/12/27 05:17:14;;;;;;;35.97;18.38;;;;;;;12.32;75.33;100533.03;4995610;28;20448;-82
2021/12/27 05:19:40;;;;;;;29.77;18.42;;;;;;;12.36;74.96;100535.31;4996333;28;20038;-82
2021/12/27 05:22:05;;;;;;;28.95;17.70;;;;;;;12.31;74.33;100536.72;4995687;28;20030;-80
2021/12/27 05:24:30;;;;;;;29.33;17.92;;;;;;;12.30;74.80;100548.47;4995611;28;20088;-82
2021/12/27 05:26:56;;;;;;;31.05;17.92;;;;;;;12.31;74.94;100544.81;4996155;28;20145;-84
2021/12/27 05:29:22;;;;;;;29.23;17.58;;;;;;;12.33;74.81;100537.41;4996857;28;20034;-82
2021/12/27 05:31:47;;;;;;;40.83;19.10;;;;;;;12.42;75.01;100534.75;4996511;28;20089;-82
2021/12/27 05:34:14;;;;;;;32.63;18.92;;;;;;;12.44;74.51;100537.31;4995440;28;20034;-85
2021/12/27 05:36:42;;;;;;;29.75;17.33;;;;;;;12.52;74.76;100545.56;4995734;28;20023;-80
2021/12/27 05:39:12;;;;;;;35.17;17.63;;;;;;;12.50;75.09;100543.00;4977971;28;20022;-82
2021/12/27 05:41:38;;;;;;;34.72;17.88;;;;;;;12.52;74.79;100540.16;4994680;28;20366;-81
2021/12/27 05:44:04;;;;;;;33.42;18.85;;;;;;;12.57;74.47;100525.25;4994948;28;20049;-80
2021/12/27 05:46:29;;;;;;;50.15;26.00;;;;;;;12.72;74.92;100533.78;4993736;28;20125;-79
2021/12/27 05:48:54;;;;;;;70.50;35.10;;;;;;;12.77;74.45;100536.94;4995221;28;20030;-80
2021/12/27 05:51:20;;;;;;;48.08;26.23;;;;;;;12.81;74.25;100524.84;4994779;28;20030;-77
2021/12/27 05:53:45;;;;;;;44.65;23.63;;;;;;;12.81;74.29;100527.53;4987009;28;20038;-79
2021/12/27 05:56:11;;;;;;;34.95;20.75;;;;;;;12.76;73.67;100526.25;4976689;28;20081;-79
2021/12/27 05:58:36;;;;;;;33.95;18.23;;;;;;;12.86;74.22;100527.13;4994590;28;20038;-79
2021/12/27 06:01:02;;;;;;;37.67;18.23;;;;;;;12.90;73.66;100523.16;4995573;28;20465;-79
2021/12/27 06:03:28;;;;;;;30.92;17.85;;;;;;;12.63;74.07;100548.13;4995176;28;20322;-79
2021/12/27 06:05:53;;;;;;;30.00;19.08;;;;;;;12.68;74.77;100543.19;4995219;28;20053;-80
2021/12/27 06:08:19;;;;;;;36.83;20.60;;;;;;;12.70;74.41;100540.31;4995528;28;20114;-80
2021/12/27 06:10:44;;;;;;;43.92;24.10;;;;;;;12.69;74.78;100536.78;4992325;28;20034;-79
2021/12/27 06:13:10;;;;;;;38.90;21.58;;;;;;;12.78;74.94;100538.63;4992154;28;20069;-80
2021/12/27 06:15:35;;;;;;;35.67;21.38;;;;;;;12.86;74.57;100540.63;4987303;28;20065;-81
2021/12/27 06:18:00;;;;;;;32.67;19.33;;;;;;;12.85;74.31;100537.06;4976007;28;20026;-78
2021/12/27 06:20:26;;;;;;;30.58;18.10;;;;;;;12.95;74.12;100542.47;4978229;28;20031;-81
2021/12/27 06:22:56;;;;;;;33.20;18.42;;;;;;;13.04;73.99;100537.06;4995986;28;20026;-78
2021/12/27 06:25:22;;;;;;;33.90;18.88;;;;;;;13.02;73.70;100533.69;4994361;28;20106;-76
2021/12/27 06:27:48;;;;;;;32.70;18.60;;;;;;;13.04;73.42;100522.72;4993931;28;20479;-79
2021/12/27 06:30:14;;;;;;;42.00;18.95;;;;;;;13.07;73.24;100536.78;5004359;28;20038;-77
2021/12/27 06:32:40;;;;;;;40.80;19.50;;;;;;;12.90;73.89;100529.38;4995132;28;20050;-76
2021/12/27 06:35:10;;;;;;;36.00;21.25;;;;;;;12.95;74.13;100529.84;4990245;28;20022;-78
2021/12/27 06:37:36;;;;;;;37.03;20.77;;;;;;;13.05;73.85;100522.59;4993007;28;20036;-79
2021/12/27 06:40:03;;;;;;;45.53;19.85;;;;;;;13.06;73.30;100528.81;4992860;28;20082;-76
2021/12/27 06:42:28;;;;;;;47.13;20.40;;;;;;;12.96;73.14;100528.84;4991356;28;20050;-77
2021/12/27 06:44:54;;;;;;;44.10;21.90;;;;;;;12.87;74.03;100529.66;4983409;28;20030;-78
2021/12/27 06:47:19;;;;;;;28.00;19.48;;;;;;;12.82;74.19;100525.69;4986250;28;20051;-77
2021/12/27 06:49:45;;;;;;;35.03;19.48;;;;;;;12.89;74.28;100530.41;4996626;28;20030;-77
2021/12/27 06:52:13;;;;;;;40.47;20.65;;;;;;;12.90;74.10;100524.00;4997113;28;20026;-78
2021/12/27 06:54:40;;;;;;;37.70;20.90;;;;;;;12.97;74.10;100530.53;4997681;28;20030;-78
2021/12/27 06:57:06;;;;;;;40.15;19.27;;;;;;;12.87;73.85;100535.06;4997076;28;20041;-79
2021/12/27 06:59:32;;;;;;;39.13;21.42;;;;;;;12.87;74.28;100528.84;4998172;28;20026;-79
2021/12/27 07:01:57;;;;;;;36.80;20.15;;;;;;;12.94;74.61;100533.53;4997288;28;20053;-78
2021/12/27 07:04:23;;;;;;;30.33;19.48;;;;;;;13.00;74.25;100535.66;4996369;28;20022;-78
2021/12/27 07:06:49;;;;;;;39.40;20.00;;;;;;;13.07;74.37;100531.41;4998240;28;20042;-78
2021/12/27 07:09:14;;;;;;;35.25;20.50;;;;;;;13.15;73.88;100528.00;4995676;28;20061;-81
2021/12/27 07:11:41;;;;;;;38.20;20.88;;;;;;;13.18;73.22;100527.72;4996076;28;20062;-84
2021/12/27 07:14:06;;;;;;;44.40;20.30;;;;;;;13.11;72.94;100523.03;4992325;28;20069;-84
2021/12/27 07:16:32;;;;;;;37.67;21.48;;;;;;;13.18;73.49;100516.91;4985767;28;20483;-83
2021/12/27 07:18:58;;;;;;;49.40;22.65;;;;;;;13.22;73.29;100522.88;4982808;28;20120;-83
2021/12/27 07:21:23;;;;;;;36.35;20.67;;;;;;;13.31;73.38;100528.25;4978998;28;20401;-79
2021/12/27 07:23:49;;;;;;;36.65;21.13;;;;;;;13.45;72.94;100530.53;4977682;28;20487;-78
2021/12/27 07:26:15;;;;;;;46.25;22.63;;;;;;;13.47;72.55;100528.53;4981623;28;20026;-78
2021/12/27 07:28:40;;;;;;;38.50;20.27;;;;;;;13.48;72.43;100527.53;4996639;28;20441;-79
2021/12/27 07:31:07;;;;;;;34.67;21.05;;;;;;;13.47;72.33;100533.06;4996189;28;20112;-77
2021/12/27 07:33:33;;;;;;;38.92;21.55;;;;;;;13.54;72.27;100534.19;4998204;28;20069;-84
2021/12/27 07:35:59;;;;;;;39.83;20.95;;;;;;;13.62;72.26;100526.22;4997818;28;20058;-83
2021/12/27 07:38:24;;;;;;;36.17;20.23;;;;;;;13.65;71.80;100531.31;4997213;28;20037;-81
2021/12/27 07:40:49;;;;;;;36.05;19.17;;;;;;;13.83;71.74;100534.94;4998404;28;20030;-86
2021/12/27 07:43:15;;;;;;;39.88;22.60;;;;;;;13.89;71.26;100539.75;5014393;28;20034;-86
2021/12/27 07:45:40;;;;;;;38.67;22.55;;;;;;;14.01;71.38;100526.91;4999815;28;20022;-82
2021/12/27 07:48:07;;;;;;;42.90;24.88;;;;;;;14.07;71.20;100532.56;5018429;28;20040;-82
2021/12/27 07:50:44;;;;;;;41.28;24.60;;;;;;;14.22;70.96;100521.28;5021441;28;20036;-82
2021/12/27 07:53:09;;;;;;;48.45;26.98;;;;;;;14.33;70.91;100523.81;5016568;28;20029;-80
2021/12/27 07:55:35;;;;;;;43.33;23.23;;;;;;;14.47;70.41;100525.97;5012281;28;20088;-78
2021/12/27 07:58:01;;;;;;;36.38;22.70;;;;;;;14.59;70.07;100524.75;4995845;28;20103;-82
2021/12/27 08:00:28;;;;;;;41.88;23.08;;;;;;;14.71;69.85;100520.81;4997428;28;20027;-81
2021/12/27 08:02:53;;;;;;;36.83;22.35;;;;;;;14.89;69.72;100521.69;4997154;28;20033;-79
2021/12/27 08:05:19;;;;;;;29.38;17.65;;;;;;;14.90;68.83;100520.69;4996865;28;20022;-81
2021/12/27 08:07:45;;;;;;;24.23;14.23;;;;;;;14.88;68.69;100517.28;4997453;28;20053;-81
2021/12/27 08:10:13;;;;;;;33.15;15.07;;;;;;;14.86;68.82;100510.31;5008588;28;20030;-80
2021/12/27 08:12:39;;;;;;;27.48;16.17;;;;;;;14.67;69.13;100516.75;5004933;28;20034;-82
2021/12/27 08:15:06;;;;;;;32.72;17.48;;;;;;;14.68;69.55;100526.53;4997523;28;20030;-81
2021/12/27 08:17:32;;;;;;;35.75;18.90;;;;;;;14.69;69.70;100517.44;4997605;28;20079;-81
2021/12/27 08:19:58;;;;;;;26.52;15.95;;;;;;;14.69;69.47;100525.53;4996163;28;20423;-81
2021/12/27 08:22:23;;;;;;;30.20;14.68;;;;;;;14.61;69.86;100525.47;4996674;28;20555;-80
2021/12/27 08:24:50;;;;;;;26.67;15.35;;;;;;;14.55;70.78;100526.09;4997721;28;20409;-80
2021/12/27 08:27:16;;;;;;;25.20;14.48;;;;;;;14.60;70.89;100529.19;4996734;28;20058;-81
2021/12/27 08:29:42;;;;;;;29.95;15.35;;;;;;;14.63;70.64;100520.75;4996757;28;20058;-79
2021/12/27 08:32:07;;;;;;;29.95;14.75;;;;;;;14.70;70.75;100524.56;4996994;28;20580;-83
2021/12/27 08:34:33;;;;;;;28.00;15.63;;;;;;;14.54;70.65;100522.53;4990074;28;20445;-81
2021/12/27 08:36:59;;;;;;;31.30;16.48;;;;;;;14.49;71.45;100516.72;4998550;28;20054;-86
2021/12/27 08:39:25;;;;;;;27.30;15.23;;;;;;;14.55;71.25;100515.25;4989552;28;20108;-84
2021/12/27 08:41:51;;;;;;;29.30;18.02;;;;;;;14.69;71.36;100512.00;4989849;28;20023;-79
2021/12/27 08:44:17;;;;;;;31.65;18.00;;;;;;;14.80;70.76;100514.47;4996540;28;20019;-81
2021/12/27 08:46:42;;;;;;;31.33;15.57;;;;;;;14.88;70.26;100511.88;4996989;28;20065;-84
2021/12/27 08:49:09;;;;;;;33.97;17.60;;;;;;;14.96;70.37;100501.09;4996425;28;20066;-78
2021/12/27 08:51:35;;;;;;;23.80;15.07;;;;;;;14.98;69.97;100500.97;4996156;28;20059;-84
2021/12/27 08:54:02;;;;;;;37.38;15.88;;;;;;;14.99;69.85;100498.06;4997176;28;20041;-80
2021/12/27 08:56:28;;;;;;;27.83;14.52;;;;;;;14.91;69.97;100487.19;4990657;28;20030;-79
2021/12/27 08:58:54;;;;;;;29.05;16.08;;;;;;;14.94;69.85;100484.16;4978063;28;20030;-81
2021/12/27 09:01:20;;;;;;;26.75;15.90;;;;;;;14.90;69.85;100482.75;4983035;28;20038;-80
2021/12/27 09:03:46;;;;;;;33.40;14.75;;;;;;;14.89;70.15;100497.31;4993958;28;20101;-80
2021/12/27 09:06:11;;;;;;;34.60;14.82;;;;;;;14.94;70.50;100489.59;4995596;28;20117;-80
2021/12/27 09:08:37;;;;;;;28.85;14.65;;;;;;;14.98;70.22;100490.13;4995020;28;20027;-80
2021/12/27 09:11:05;;;;;;;26.42;13.82;;;;;;;15.08;70.18;100480.03;4995447;28;20053;-80
2021/12/27 09:13:33;;;;;;;31.40;14.95;;;;;;;15.19;69.67;100477.09;4995024;28;20033;-79
2021/12/27 09:16:01;;;;;;;31.17;16.88;;;;;;;15.17;70.14;100462.81;4994994;28;20030;-81
2021/12/27 09:18:31;;;;;;;37.03;19.17;;;;;;;15.21;70.09;100465.09;4994713;28;20021;-79
2021/12/27 09:20:58;;;;;;;38.10;15.57;;;;;;;15.23;69.91;100462.19;4992765;28;20034;-78
2021/12/27 09:23:24;;;;;;;24.13;13.77;;;;;;;15.13;70.45;100458.75;4970746;28;20041;-77
2021/12/27 09:25:50;;;;;;;32.75;15.70;;;;;;;15.10;70.58;100462.63;4996365;28;20022;-81
2021/12/27 09:28:16;;;;;;;33.30;13.68;;;;;;;15.11;70.55;100458.03;5004585;28;20555;-80
2021/12/27 09:30:42;;;;;;;32.47;16.77;;;;;;;15.07;70.63;100451.25;4993360;28;20456;-79
2021/12/27 09:33:07;;;;;;;24.40;13.82;;;;;;;14.88;70.62;100449.59;4993799;28;20109;-78
2021/12/27 09:35:34;;;;;;;23.60;13.10;;;;;;;14.81;70.92;100448.50;4995009;28;20094;-79
2021/12/27 09:38:00;;;;;;;47.95;14.90;;;;;;;14.86;71.40;100443.47;4994246;28;20082;-80
2021/12/27 09:40:25;;;;;;;37.60;15.10;;;;;;;14.92;71.18;100450.94;4996860;28;20030;-80
2021/12/27 09:42:52;;;;;;;25.67;15.20;;;;;;;14.99;70.62;100443.91;4997813;28;20038;-79
2021/12/27 09:45:19;;;;;;;28.67;16.70;;;;;;;14.92;71.29;100437.41;4997781;28;20042;-79
2021/12/27 09:47:47;;;;;;;37.75;14.70;;;;;;;14.86;71.28;100448.88;5003389;28;20065;-80
2021/12/27 09:50:17;;;;;;;57.97;16.05;;;;;;;14.99;71.00;100438.50;5013117;28;20044;-78
2021/12/27 09:52:43;;;;;;;32.40;15.07;;;;;;;15.00;70.66;100426.66;5000601;28;20052;-78
2021/12/27 09:55:10;;;;;;;39.40;13.95;;;;;;;14.97;70.79;100424.28;4978091;28;20482;-79
2021/12/27 09:57:36;;;;;;;33.42;13.52;;;;;;;15.00;70.66;100434.78;4976479;28;20029;-79
2021/12/27 10:00:02;;;;;;;35.28;18.85;;;;;;;15.04;70.95;100430.75;4994083;28;20041;-79
2021/12/27 10:02:28;;;;;;;43.67;14.90;;;;;;;15.27;70.73;100436.50;4993315;28;20056;-79
2021/12/27 10:04:54;;;;;;;34.42;14.65;;;;;;;15.37;69.88;100433.69;4993581;28;20501;-79
2021/12/27 10:07:21;;;;;;;38.67;15.00;;;;;;;15.35;70.02;100424.88;4993609;28;20527;-79
2021/12/27 10:09:55;;;;;;;26.10;14.45;;;;;;;15.45;69.51;100422.88;4993696;28;20050;-79
2021/12/27 10:12:23;;;;;;;56.15;16.13;;;;;;;15.53;69.42;100425.69;4993263;28;20034;-81
2021/12/27 10:15:07;;;;;;;33.65;13.55;;;;;;;15.51;69.17;100427.69;4993228;28;20492;-79
2021/12/27 10:17:35;;;;;;;31.05;14.10;;;;;;;15.59;69.29;100419.63;4994291;28;20101;-79
2021/12/27 10:20:20;;;;;;;38.75;13.82;;;;;;;15.59;68.56;100423.19;4993742;28;20060;-79
2021/12/27 10:22:49;;;;;;;48.05;12.65;;;;;;;15.67;68.56;100411.50;4975002;28;20023;-79
2021/12/27 10:25:23;;;;;;;30.92;12.70;;;;;;;15.76;68.59;100403.25;4974238;28;20404;-79
2021/12/27 10:27:53;;;;;;;39.63;13.68;;;;;;;15.92;67.75;100398.91;4973975;28;20030;-79
2021/12/27 10:30:21;;;;;;;49.95;15.27;;;;;;;15.93;67.05;100395.19;4974062;28;20505;-80
2021/12/27 10:33:03;;;;;;;46.83;14.43;;;;;;;15.83;67.39;100397.16;4993044;28;20130;-79
2021/12/27 10:35:47;;;;;;;24.05;11.93;;;;;;;15.58;67.39;100394.38;4993287;28;20034;-79
2021/12/27 10:38:31;;;;;;;48.83;14.70;;;;;;;15.39;68.06;100386.44;4987985;28;20105;-78
2021/12/27 10:41:03;;;;;;;46.92;14.63;;;;;;;15.42;68.61;100390.66;4989302;28;20022;-79
2021/12/27 10:43:40;;;;;;;;;;;;;;;15.49;68.71;100386.34;4993991;28;20484;-78
2021/12/27 10:46:08;;;;;;;51.20;17.17;;;;;;;15.46;68.87;100379.38;4992886;28;19909;-79
2021/12/27 10:48:35;;;;;;;34.15;12.80;;;;;;;15.43;68.72;100368.00;4985105;28;20101;-79
2021/12/27 10:51:03;;;;;;;31.83;13.38;;;;;;;15.54;68.52;100367.72;4974085;28;20498;-80
2021/12/27 10:53:42;;;;;;;48.63;15.20;;;;;;;15.65;67.75;100364.75;4973733;28;20054;-78
2021/12/27 10:56:07;;;;;;;34.80;14.20;;;;;;;15.65;67.57;100354.75;4974286;28;20389;-80
2021/12/27 10:58:37;;;;;;;44.00;15.30;;;;;;;15.57;67.93;100359.28;4974410;28;20029;-78
2021/12/27 11:01:09;;;;;;;53.50;13.40;;;;;;;15.70;67.95;100356.94;4974448;28;20031;-80
2021/12/27 11:03:38;;;;;;;46.97;14.68;;;;;;;15.75;67.76;100360.00;4975704;28;20058;-77
2021/12/27 11:06:07;;;;;;;26.73;12.23;;;;;;;15.73;66.57;100359.34;4992854;28;20043;-78
2021/12/27 11:08:35;;;;;;;61.00;14.60;;;;;;;15.86;66.52;100357.00;4975988;28;20050;-78